Aérodrome :
LOGIN :

S'inscrire | Disclaimer

   EN    FR    IT 

 










Légende :    VFR   VFR Marginal   IFR   IFR Intensif   IFR Très Intensif
Visi : 
Plafond : 
>= 8 km
>= 3000ft
5 à 8 km
1000 à 3000 ft
1500m à 5 km
500 à 1000 ft
800 à 1500m
200 à 500 ft
< 800m
< 200 ft
Symboles :   Orages  Brouillard  Fortes neiges  Fortes précipitations  Vent > 20 kt
SIGMETs :   Divers  Orages  Givrage  Turbulence  Onde Orograph.  Cendres Volcan.






- Altitude de l'aérodrome : 1411 ft
- Code IATA : ZHI


LSZG - Grenchen

DERNIER METAR :
  • 141120Z 24008KT 210V270 9999 FEW028 BKN050 17/11 Q1015

METARs EXPIRÉS :
  • 141050Z 24010KT 9999 FEW034 BKN054 16/11 Q1015
  • 141020Z 22006KT 180V250 9999 SCT023 SCT030 BKN055 16/12 Q1016
  • 140950Z 22007KT 190V260 9999 FEW027 BKN052 15/11 Q1016
  • 140920Z 23011KT 9999 FEW018 SCT021 BKN049 14/11 Q1016
  • 140850Z 23008KT 190V260 9999 FEW035 BKN042 13/11 Q1016
  • 140820Z 24012KT 9999 DZ BKN047 13/11 Q1016
  • 140750Z 24012KT 210V270 9999 -RA BKN050 13/11 Q1016
  • 140720Z 23012KT 9999 -RA BKN055 13/10 Q1015 REDZ
  • 140650Z 23015KT 170V260 9999 DZ BKN055 14/09 Q1015

TAF TAF LSZG
Valide du 14 à 12h jusqu'au 14 à 21h UTC


141125Z 1412/1421 24010KT 9999 FEW035 BKN055
TEMPO 1415/1418 CAVOK
BECMG 1417/1419 VRB01KT
ATIS : +41 32 396 96 33



MET'MAP, la Météo Aéronautique d'un coup d'oeil ! - Copyright ORBIFLY Décembre 2007 - Disclaimer

ORBIFLY MET'MAP TEAM :

Programmation & Développement : Alexandra Zaïnal
Sur une idée originale de : Baudouin d'Aumeries
Soutien technique & logistique : Manuel Goepfert
Assistance : Marc-Olivier Méhu




SOURCES & CREDITS :

   NOAA